Time;durP1;ratioP1;P1;durP2;ratioP2;P2;SDS_P1;SDS_P2;PMS_P1;PMS_P2;Temp;Humidity;BMP_temperature;BMP_pressure;BME280_temperature;BME280_humidity;BME280_pressure;Samples;Min_cycle;Max_cycle;Signal;HPM_P1;HPM_P2
2022/03/02 00:21:53;;;;;;;9.85;8.35;;;;;;;;;;5168115;27;20161;-67
2022/03/02 00:24:20;;;;;;;9.50;8.57;;;;;;;;;;5178032;27;20063;-68
2022/03/02 00:26:46;;;;;;;9.38;8.43;;;;;;;;;;5179232;27;20085;-67
2022/03/02 00:29:12;;;;;;;11.20;8.10;;;;;;;;;;5179217;27;20066;-67
2022/03/02 00:31:38;;;;;;;10.65;8.07;;;;;;;;;;5179084;27;20082;-70
2022/03/02 00:34:04;;;;;;;9.80;8.38;;;;;;;;;;5179500;27;20137;-65
2022/03/02 00:36:30;;;;;;;9.55;7.78;;;;;;;;;;5164570;27;20089;-65
2022/03/02 00:38:57;;;;;;;8.90;7.65;;;;;;;;;;5201638;27;20081;-66
2022/03/02 00:41:23;;;;;;;11.27;8.07;;;;;;;;;;5165136;27;20187;-66
2022/03/02 00:43:49;;;;;;;11.02;8.20;;;;;;;;;;5201522;27;20068;-66
2022/03/02 00:46:16;;;;;;;9.07;8.18;;;;;;;;;;5201691;27;20065;-66
2022/03/02 00:48:42;;;;;;;9.45;7.97;;;;;;;;;;5182127;27;20685;-65
2022/03/02 00:51:08;;;;;;;9.75;8.48;;;;;;;;;;5201518;27;20088;-66
2022/03/02 00:53:35;;;;;;;9.95;8.73;;;;;;;;;;5201375;27;20094;-66
2022/03/02 00:56:01;;;;;;;10.00;9.00;;;;;;;;;;5201917;27;20078;-66
2022/03/02 00:58:27;;;;;;;11.70;9.85;;;;;;;;;;5201398;27;20472;-66
2022/03/02 01:00:53;;;;;;;10.23;9.00;;;;;;;;;;5165168;27;20546;-67
2022/03/02 01:03:19;;;;;;;9.13;8.15;;;;;;;;;;5201487;27;20093;-67
2022/03/02 01:05:45;;;;;;;9.38;8.15;;;;;;;;;;5201372;27;20152;-66
2022/03/02 01:08:11;;;;;;;11.95;9.77;;;;;;;;;;5201326;27;20081;-67
2022/03/02 01:10:37;;;;;;;10.88;9.77;;;;;;;;;;5164808;27;20106;-69
2022/03/02 01:13:03;;;;;;;12.30;10.00;;;;;;;;;;5201702;27;20094;-69
2022/03/02 01:15:29;;;;;;;12.10;9.43;;;;;;;;;;5182631;27;20074;-69
2022/03/02 01:17:56;;;;;;;11.98;10.00;;;;;;;;;;5201574;27;20089;-69
2022/03/02 01:20:22;;;;;;;11.43;10.27;;;;;;;;;;5182508;27;20073;-69
2022/03/02 01:22:48;;;;;;;11.63;9.23;;;;;;;;;;5201443;27;20085;-68
2022/03/02 01:25:14;;;;;;;14.93;13.27;;;;;;;;;;5201396;27;20070;-68
2022/03/02 01:27:40;;;;;;;11.00;9.40;;;;;;;;;;5201292;27;20156;-69
2022/03/02 01:30:07;;;;;;;11.40;10.00;;;;;;;;;;5182254;27;20081;-69
2022/03/02 01:32:33;;;;;;;12.93;11.50;;;;;;;;;;5181994;27;20080;-68
2022/03/02 01:34:59;;;;;;;13.45;12.05;;;;;;;;;;5182605;27;20093;-68
2022/03/02 01:37:25;;;;;;;12.07;10.27;;;;;;;;;;5181818;27;20184;-68
2022/03/02 01:39:52;;;;;;;11.52;9.70;;;;;;;;;;5201279;27;20093;-68
2022/03/02 01:42:18;;;;;;;11.57;10.02;;;;;;;;;;5201209;27;20117;-68
2022/03/02 01:44:44;;;;;;;11.80;10.07;;;;;;;;;;5201176;27;20091;-68
2022/03/02 01:47:10;;;;;;;11.52;10.32;;;;;;;;;;5201102;27;20070;-68
2022/03/02 01:49:36;;;;;;;13.40;10.55;;;;;;;;;;5201308;27;20077;-69
2022/03/02 01:52:02;;;;;;;11.52;10.30;;;;;;;;;;5201385;27;20731;-68
2022/03/02 01:54:28;;;;;;;11.40;10.20;;;;;;;;;;5201213;27;20090;-72
2022/03/02 01:56:54;;;;;;;13.38;10.60;;;;;;;;;;5181941;27;20085;-70
2022/03/02 01:59:20;;;;;;;11.90;10.65;;;;;;;;;;5201193;27;20070;-68
2022/03/02 02:01:47;;;;;;;13.32;10.85;;;;;;;;;;5182117;27;20112;-70
2022/03/02 02:04:14;;;;;;;13.32;11.70;;;;;;;;;;5201112;27;20104;-67
2022/03/02 02:06:40;;;;;;;14.77;11.75;;;;;;;;;;5164387;27;20089;-70
2022/03/02 02:09:07;;;;;;;14.82;11.90;;;;;;;;;;5181814;27;20108;-67
2022/03/02 02:11:34;;;;;;;13.85;11.98;;;;;;;;;;5181851;27;20077;-67
2022/03/02 02:14:01;;;;;;;14.45;12.60;;;;;;;;;;5181763;27;20089;-69
2022/03/02 02:16:27;;;;;;;16.30;12.15;;;;;;;;;;5200912;27;20404;-69
2022/03/02 02:18:55;;;;;;;13.80;12.30;;;;;;;;;;5200956;27;20064;-69
2022/03/02 02:21:21;;;;;;;16.15;14.23;;;;;;;;;;5164604;27;20096;-69
2022/03/02 02:23:47;;;;;;;19.20;13.80;;;;;;;;;;5200892;27;20082;-69
2022/03/02 02:26:13;;;;;;;25.90;19.12;;;;;;;;;;5201021;27;20065;-69
2022/03/02 02:28:40;;;;;;;20.08;16.02;;;;;;;;;;5181385;27;20476;-70
2022/03/02 02:31:06;;;;;;;27.77;17.98;;;;;;;;;;5181460;27;20081;-69
2022/03/02 02:33:32;;;;;;;25.75;18.45;;;;;;;;;;5181571;27;20178;-69
2022/03/02 02:35:58;;;;;;;29.90;19.00;;;;;;;;;;5181555;27;20081;-69
2022/03/02 02:38:25;;;;;;;29.25;19.40;;;;;;;;;;5163995;27;20093;-69
2022/03/02 02:40:52;;;;;;;32.50;20.08;;;;;;;;;;5200720;27;20200;-69
2022/03/02 02:43:21;;;;;;;38.33;23.25;;;;;;;;;;5200761;27;20480;-69
2022/03/02 02:45:47;;;;;;;44.60;28.33;;;;;;;;;;5164125;27;20073;-70
2022/03/02 02:48:13;;;;;;;48.87;31.05;;;;;;;;;;5181444;27;20084;-69
2022/03/02 02:50:39;;;;;;;57.17;32.97;;;;;;;;;;5181431;27;20090;-70
2022/03/02 02:53:08;;;;;;;61.70;36.10;;;;;;;;;;5181723;27;20061;-69
2022/03/02 02:55:35;;;;;;;80.20;38.75;;;;;;;;;;5181721;27;20089;-69
2022/03/02 02:58:02;;;;;;;79.60;40.80;;;;;;;;;;5200259;27;20101;-67
2022/03/02 03:00:32;;;;;;;95.05;43.95;;;;;;;;;;5200546;27;20101;-69
2022/03/02 03:03:00;;;;;;;111.43;43.80;;;;;;;;;;5181686;27;20072;-69
2022/03/02 03:05:29;;;;;;;140.12;46.33;;;;;;;;;;5181167;27;20190;-69
2022/03/02 03:07:57;;;;;;;142.57;46.53;;;;;;;;;;5200428;27;20077;-69
2022/03/02 03:10:25;;;;;;;130.18;48.33;;;;;;;;;;5200504;27;20398;-70
2022/03/02 03:12:52;;;;;;;142.57;47.95;;;;;;;;;;5181648;27;20429;-71
2022/03/02 03:15:19;;;;;;;130.05;47.60;;;;;;;;;;5200557;27;20120;-70
2022/03/02 03:17:46;;;;;;;158.23;48.58;;;;;;;;;;5200523;27;20069;-70
2022/03/02 03:20:17;;;;;;;169.48;49.28;;;;;;;;;;5181330;27;20082;-69
2022/03/02 03:22:43;;;;;;;145.85;51.53;;;;;;;;;;5181530;27;20096;-69
2022/03/02 03:25:11;;;;;;;139.20;48.63;;;;;;;;;;5181319;27;20209;-68
2022/03/02 03:27:37;;;;;;;160.30;52.42;;;;;;;;;;5200373;27;20086;-67
2022/03/02 03:30:07;;;;;;;146.37;49.35;;;;;;;;;;5200290;27;20085;-68
2022/03/02 03:32:34;;;;;;;111.78;48.22;;;;;;;;;;5181027;27;20552;-70
2022/03/02 03:35:00;;;;;;;135.93;50.25;;;;;;;;;;5200468;27;20139;-68
2022/03/02 03:37:26;;;;;;;117.32;48.58;;;;;;;;;;5181564;27;20409;-67
2022/03/02 03:39:53;;;;;;;122.30;49.90;;;;;;;;;;5181198;27;20083;-66
2022/03/02 03:42:19;;;;;;;104.43;50.28;;;;;;;;;;5200504;27;20064;-69
2022/03/02 03:44:45;;;;;;;130.63;53.03;;;;;;;;;;5181380;27;20066;-70
2022/03/02 03:47:11;;;;;;;112.82;50.65;;;;;;;;;;5200269;27;20078;-68
2022/03/02 03:49:37;;;;;;;132.43;49.30;;;;;;;;;;5200480;27;20082;-68
2022/03/02 03:52:04;;;;;;;130.68;54.50;;;;;;;;;;5200637;27;20086;-69
2022/03/02 03:54:30;;;;;;;126.18;52.20;;;;;;;;;;5181245;27;20070;-67
2022/03/02 03:56:56;;;;;;;132.05;53.92;;;;;;;;;;5181257;27;20175;-65
2022/03/02 03:59:22;;;;;;;117.43;56.20;;;;;;;;;;5180810;27;20109;-67
2022/03/02 04:01:48;;;;;;;147.98;51.42;;;;;;;;;;5200486;27;20155;-68
2022/03/02 04:04:14;;;;;;;156.48;56.20;;;;;;;;;;5200264;27;20073;-71
2022/03/02 04:06:40;;;;;;;195.32;54.92;;;;;;;;;;5200154;27;20070;-70
2022/03/02 04:09:06;;;;;;;172.68;57.62;;;;;;;;;;5201254;27;20167;-68
2022/03/02 04:11:32;;;;;;;185.95;64.35;;;;;;;;;;5201371;27;20061;-69
2022/03/02 04:13:58;;;;;;;148.38;63.87;;;;;;;;;;5199983;27;20085;-69
2022/03/02 04:16:24;;;;;;;139.60;63.87;;;;;;;;;;5181949;27;20504;-69
2022/03/02 04:18:50;;;;;;;143.37;66.45;;;;;;;;;;5201597;27;20410;-72
2022/03/02 04:21:17;;;;;;;115.40;62.17;;;;;;;;;;5201426;27;20500;-71
2022/03/02 04:23:43;;;;;;;133.57;69.62;;;;;;;;;;5165009;27;20096;-70
2022/03/02 04:26:09;;;;;;;126.97;67.22;;;;;;;;;;5201729;27;20077;-71
2022/03/02 04:28:35;;;;;;;126.85;69.20;;;;;;;;;;5182045;27;20603;-70
2022/03/02 04:31:01;;;;;;;119.07;69.45;;;;;;;;;;5201707;27;20186;-71
2022/03/02 04:33:27;;;;;;;115.80;67.97;;;;;;;;;;5183128;27;20081;-70
2022/03/02 04:35:53;;;;;;;117.15;69.62;;;;;;;;;;5201742;27;20074;-71
2022/03/02 04:38:19;;;;;;;123.47;70.72;;;;;;;;;;5201557;27;20433;-71
2022/03/02 04:40:46;;;;;;;112.37;66.03;;;;;;;;;;5201389;27;20096;-69
2022/03/02 04:43:12;;;;;;;99.70;59.58;;;;;;;;;;5182682;27;20527;-71
2022/03/02 04:45:38;;;;;;;103.43;61.85;;;;;;;;;;5201409;27;20077;-64
2022/03/02 04:48:05;;;;;;;117.82;65.80;;;;;;;;;;5201872;27;20180;-63
2022/03/02 04:50:31;;;;;;;106.80;61.37;;;;;;;;;;5182558;27;20073;-63
2022/03/02 04:52:58;;;;;;;93.00;57.45;;;;;;;;;;5201510;27;20382;-64
2022/03/02 04:55:24;;;;;;;81.55;51.35;;;;;;;;;;5201301;27;20243;-64
2022/03/02 04:57:55;;;;;;;71.55;49.72;;;;;;;;;;5201408;27;20070;-64
2022/03/02 05:00:26;;;;;;;58.95;44.33;;;;;;;;;;5201348;27;20081;-64
2022/03/02 05:02:52;;;;;;;55.75;43.28;;;;;;;;;;5201423;27;20081;-64
2022/03/02 05:05:21;;;;;;;56.22;43.08;;;;;;;;;;5201323;27;20076;-64
2022/03/02 05:07:47;;;;;;;52.85;42.10;;;;;;;;;;5201395;27;20405;-62
2022/03/02 05:10:15;;;;;;;52.58;42.15;;;;;;;;;;5182306;27;20078;-64
2022/03/02 05:12:42;;;;;;;52.97;40.58;;;;;;;;;;5201248;27;20109;-64
2022/03/02 05:15:09;;;;;;;51.08;40.15;;;;;;;;;;5201169;27;20082;-64
2022/03/02 05:17:36;;;;;;;55.12;40.45;;;;;;;;;;5201322;27;20154;-64
2022/03/02 05:20:04;;;;;;;51.35;39.67;;;;;;;;;;5200953;27;20176;-64
2022/03/02 05:22:30;;;;;;;54.33;41.72;;;;;;;;;;5201190;27;20183;-63
2022/03/02 05:24:56;;;;;;;51.17;39.38;;;;;;;;;;5201334;27;20085;-63
2022/03/02 05:27:24;;;;;;;49.03;37.47;;;;;;;;;;5201095;27;20183;-64
2022/03/02 05:29:50;;;;;;;46.85;35.40;;;;;;;;;;5201452;27;20061;-64
2022/03/02 05:32:16;;;;;;;51.33;38.17;;;;;;;;;;5201239;27;20070;-64
2022/03/02 05:34:43;;;;;;;50.97;37.03;;;;;;;;;;5201096;27;20062;-64
2022/03/02 05:37:09;;;;;;;47.42;36.97;;;;;;;;;;5201130;27;20084;-64
2022/03/02 05:39:35;;;;;;;57.65;39.45;;;;;;;;;;5201216;27;20539;-64
2022/03/02 05:42:02;;;;;;;43.67;36.22;;;;;;;;;;5201404;27;20097;-64
2022/03/02 05:44:28;;;;;;;43.80;35.55;;;;;;;;;;5201155;27;20080;-63
2022/03/02 05:46:54;;;;;;;42.65;33.75;;;;;;;;;;5200998;27;20078;-64
2022/03/02 05:49:20;;;;;;;40.83;33.03;;;;;;;;;;5201086;27;20084;-64
2022/03/02 05:51:46;;;;;;;38.38;32.22;;;;;;;;;;5201322;27;20172;-64
2022/03/02 05:54:12;;;;;;;38.80;31.42;;;;;;;;;;5201064;27;20497;-64
2022/03/02 05:56:38;;;;;;;37.72;31.33;;;;;;;;;;5201014;27;20070;-64
2022/03/02 05:59:06;;;;;;;35.35;29.40;;;;;;;;;;5201002;27;20082;-64
2022/03/02 06:01:33;;;;;;;34.95;29.90;;;;;;;;;;5201383;27;20064;-64
2022/03/02 06:04:00;;;;;;;37.42;30.42;;;;;;;;;;5201103;27;20156;-64
2022/03/02 06:06:26;;;;;;;40.42;31.37;;;;;;;;;;5200985;27;20072;-64
2022/03/02 06:08:52;;;;;;;35.40;28.90;;;;;;;;;;5181670;27;20097;-64
2022/03/02 06:11:18;;;;;;;37.45;29.80;;;;;;;;;;5201110;27;20057;-64
2022/03/02 06:13:45;;;;;;;37.50;30.40;;;;;;;;;;5201018;27;20154;-63
2022/03/02 06:16:11;;;;;;;40.47;31.52;;;;;;;;;;5200909;27;20074;-64
2022/03/02 06:18:37;;;;;;;39.08;32.03;;;;;;;;;;5201015;27;20062;-64
2022/03/02 06:21:04;;;;;;;38.90;31.02;;;;;;;;;;5200636;27;20065;-64
2022/03/02 06:23:31;;;;;;;39.03;31.25;;;;;;;;;;5181718;27;20084;-64
2022/03/02 06:25:58;;;;;;;40.35;33.88;;;;;;;;;;5200772;27;20425;-64
2022/03/02 06:28:25;;;;;;;42.38;34.35;;;;;;;;;;5200726;27;20072;-63
2022/03/02 06:30:51;;;;;;;41.67;33.28;;;;;;;;;;5200794;27;20077;-63
2022/03/02 06:33:19;;;;;;;38.53;31.08;;;;;;;;;;5200855;27;20167;-64
2022/03/02 06:35:48;;;;;;;41.85;32.50;;;;;;;;;;5200782;27;20072;-63
2022/03/02 06:38:15;;;;;;;40.12;32.55;;;;;;;;;;5200670;27;20093;-64
2022/03/02 06:40:53;;;;;;;36.90;30.98;;;;;;;;;;5182005;27;20306;-63
2022/03/02 06:43:20;;;;;;;36.65;29.55;;;;;;;;;;5200837;27;20076;-64
2022/03/02 06:45:51;;;;;;;35.05;27.80;;;;;;;;;;5181398;27;20085;-63
2022/03/02 06:48:43;;;;;;;35.78;29.75;;;;;;;;;;5200747;27;20061;-63
2022/03/02 06:51:12;;;;;;;39.97;32.10;;;;;;;;;;5200814;27;20251;-64
2022/03/02 06:53:39;;;;;;;37.50;31.40;;;;;;;;;;5200765;27;20072;-64
2022/03/02 06:56:07;;;;;;;35.38;29.05;;;;;;;;;;5200712;27;20505;-63
2022/03/02 06:58:41;;;;;;;29.80;26.10;;;;;;;;;;5200640;27;20081;-64
2022/03/02 07:01:13;;;;;;;32.10;26.60;;;;;;;;;;5200496;27;20094;-64
2022/03/02 07:03:49;;;;;;;33.55;25.95;;;;;;;;;;5201147;27;20082;-63
2022/03/02 07:06:15;;;;;;;29.58;25.60;;;;;;;;;;5200767;27;20099;-64
2022/03/02 07:08:44;;;;;;;30.52;25.55;;;;;;;;;;5181684;27;20077;-63
2022/03/02 07:11:10;;;;;;;27.02;23.80;;;;;;;;;;5200493;27;20093;-63
2022/03/02 07:13:36;;;;;;;29.55;24.63;;;;;;;;;;5200600;27;20086;-63
2022/03/02 07:16:03;;;;;;;29.45;25.65;;;;;;;;;;5200627;27;20155;-64
2022/03/02 07:18:29;;;;;;;30.73;24.87;;;;;;;;;;5181735;27;20085;-63
2022/03/02 07:20:57;;;;;;;31.27;24.67;;;;;;;;;;5200348;27;20069;-63
2022/03/02 07:23:25;;;;;;;30.45;24.55;;;;;;;;;;5200498;27;20161;-63
2022/03/02 07:25:54;;;;;;;32.92;26.70;;;;;;;;;;5200285;27;20072;-63
2022/03/02 07:28:20;;;;;;;38.42;26.37;;;;;;;;;;5181850;27;20069;-62
2022/03/02 07:30:47;;;;;;;39.22;29.23;;;;;;;;;;5181512;27;20127;-62
2022/03/02 07:33:15;;;;;;;34.35;26.67;;;;;;;;;;5181631;27;20184;-63
2022/03/02 07:35:47;;;;;;;36.70;28.17;;;;;;;;;;5200400;27;20116;-63
2022/03/02 07:38:14;;;;;;;33.97;26.15;;;;;;;;;;5200581;27;20089;-64
2022/03/02 07:40:40;;;;;;;37.63;27.15;;;;;;;;;;5200388;27;20078;-63
2022/03/02 07:43:06;;;;;;;39.85;28.38;;;;;;;;;;5201180;27;20077;-63
2022/03/02 07:45:32;;;;;;;36.10;25.90;;;;;;;;;;5202565;27;20081;-63
2022/03/02 07:47:58;;;;;;;34.78;24.95;;;;;;;;;;5202817;27;20085;-64
2022/03/02 07:50:25;;;;;;;34.92;25.62;;;;;;;;;;5202750;27;20082;-64
2022/03/02 07:52:52;;;;;;;38.45;25.62;;;;;;;;;;5202870;27;20200;-64
2022/03/02 07:55:18;;;;;;;34.05;23.70;;;;;;;;;;5183527;27;20068;-65
2022/03/02 07:57:45;;;;;;;35.72;25.58;;;;;;;;;;5202880;27;20075;-65
2022/03/02 08:00:12;;;;;;;31.17;23.60;;;;;;;;;;5202882;27;20178;-65
2022/03/02 08:02:42;;;;;;;34.78;26.40;;;;;;;;;;5183795;27;20476;-67
2022/03/02 08:05:12;;;;;;;36.92;27.62;;;;;;;;;;5202706;27;20090;-66
2022/03/02 08:07:38;;;;;;;35.60;27.67;;;;;;;;;;5183083;27;20089;-66
2022/03/02 08:10:05;;;;;;;40.15;28.65;;;;;;;;;;5179548;27;20564;-67
2022/03/02 08:12:32;;;;;;;41.80;29.30;;;;;;;;;;5198036;27;20083;-66
2022/03/02 08:14:58;;;;;;;38.80;29.98;;;;;;;;;;5202831;27;20089;-66
2022/03/02 08:17:24;;;;;;;44.42;33.95;;;;;;;;;;5183651;27;20417;-71
2022/03/02 08:19:50;;;;;;;42.35;28.40;;;;;;;;;;5202691;27;20600;-68
2022/03/02 08:22:22;;;;;;;36.90;27.83;;;;;;;;;;5202514;27;20512;-69
2022/03/02 08:25:10;;;;;;;39.20;28.20;;;;;;;;;;5183418;27;20480;-67
2022/03/02 08:27:41;;;;;;;33.95;25.75;;;;;;;;;;5183884;27;20166;-68
2022/03/02 08:30:10;;;;;;;34.88;24.10;;;;;;;;;;5179273;27;20078;-69
2022/03/02 08:32:40;;;;;;;31.27;24.63;;;;;;;;;;5179410;27;20527;-69
2022/03/02 08:35:07;;;;;;;33.60;24.95;;;;;;;;;;5179759;27;20599;-68
2022/03/02 08:37:35;;;;;;;34.22;23.42;;;;;;;;;;5198257;27;20085;-68
2022/03/02 08:40:01;;;;;;;28.95;21.95;;;;;;;;;;5202584;27;20081;-69
2022/03/02 08:42:27;;;;;;;27.67;20.10;;;;;;;;;;5183503;27;20466;-68
2022/03/02 08:44:54;;;;;;;24.55;19.87;;;;;;;;;;5202603;27;20190;-69
2022/03/02 08:47:23;;;;;;;20.83;17.10;;;;;;;;;;5183415;27;20089;-68
2022/03/02 08:49:50;;;;;;;21.50;17.08;;;;;;;;;;5202665;27;20077;-68
2022/03/02 08:52:18;;;;;;;22.73;17.90;;;;;;;;;;5183362;27;20093;-69
2022/03/02 08:54:46;;;;;;;26.27;20.08;;;;;;;;;;5182959;27;20084;-68
2022/03/02 08:57:12;;;;;;;23.65;19.62;;;;;;;;;;5182620;27;20108;-67
2022/03/02 08:59:39;;;;;;;25.20;20.37;;;;;;;;;;5182263;27;20089;-68
2022/03/02 09:02:07;;;;;;;24.87;19.00;;;;;;;;;;5201512;27;20164;-68
2022/03/02 09:04:35;;;;;;;25.15;19.42;;;;;;;;;;5182380;27;20086;-68
2022/03/02 09:07:03;;;;;;;20.25;17.37;;;;;;;;;;5201331;27;20077;-68
2022/03/02 09:09:30;;;;;;;20.77;17.52;;;;;;;;;;5201327;27;20506;-68
2022/03/02 09:11:56;;;;;;;21.50;17.45;;;;;;;;;;5201583;27;20062;-68
2022/03/02 09:14:24;;;;;;;20.58;17.12;;;;;;;;;;5165079;27;20086;-68
2022/03/02 09:16:51;;;;;;;20.58;16.17;;;;;;;;;;5182103;27;20093;-69
2022/03/02 09:19:17;;;;;;;19.62;16.35;;;;;;;;;;5182443;27;20073;-68
2022/03/02 09:21:44;;;;;;;20.75;16.05;;;;;;;;;;5182044;27;20069;-68
2022/03/02 09:24:11;;;;;;;19.23;15.93;;;;;;;;;;5201308;27;20089;-70
2022/03/02 09:26:41;;;;;;;21.40;15.38;;;;;;;;;;5201410;27;20144;-70
2022/03/02 09:29:07;;;;;;;20.23;15.68;;;;;;;;;;5201115;27;20230;-70
2022/03/02 09:31:35;;;;;;;22.02;15.88;;;;;;;;;;5201458;27;20084;-64
2022/03/02 09:34:05;;;;;;;20.58;16.20;;;;;;;;;;5201243;27;20078;-65
2022/03/02 09:36:36;;;;;;;20.62;15.95;;;;;;;;;;5201105;27;20112;-66
2022/03/02 09:39:04;;;;;;;21.35;16.00;;;;;;;;;;5182326;27;20096;-65
2022/03/02 09:41:40;;;;;;;19.60;15.88;;;;;;;;;;5201033;27;20164;-65
2022/03/02 09:44:07;;;;;;;20.02;15.63;;;;;;;;;;5201319;27;20085;-67
2022/03/02 09:46:36;;;;;;;21.65;17.05;;;;;;;;;;5201129;27;20068;-68
2022/03/02 09:49:11;;;;;;;17.50;14.35;;;;;;;;;;5164711;27;20084;-65
2022/03/02 09:51:39;;;;;;;19.58;16.85;;;;;;;;;;5201278;27;20077;-64
2022/03/02 09:54:06;;;;;;;20.00;16.35;;;;;;;;;;5201145;27;20061;-65
2022/03/02 09:56:35;;;;;;;21.42;16.42;;;;;;;;;;5201258;27;20069;-66
2022/03/02 09:59:04;;;;;;;21.70;16.08;;;;;;;;;;5201030;27;20545;-66
2022/03/02 10:01:32;;;;;;;20.62;16.37;;;;;;;;;;5201441;27;20587;-65
2022/03/02 10:04:11;;;;;;;22.98;17.87;;;;;;;;;;5182039;27;20202;-66
2022/03/02 10:06:42;;;;;;;22.15;17.40;;;;;;;;;;5182084;27;20086;-66
2022/03/02 10:09:11;;;;;;;23.70;17.48;;;;;;;;;;5181728;27;20088;-65
2022/03/02 10:11:41;;;;;;;20.42;16.85;;;;;;;;;;5200858;27;20595;-65
2022/03/02 10:14:08;;;;;;;21.48;17.70;;;;;;;;;;5200978;27;20080;-65
2022/03/02 10:16:41;;;;;;;24.10;18.35;;;;;;;;;;5198681;27;20140;-64
2022/03/02 10:19:08;;;;;;;25.83;19.23;;;;;;;;;;5199414;27;20065;-63
2022/03/02 10:21:40;;;;;;;21.80;17.33;;;;;;;;;;5200939;27;20078;-66
2022/03/02 10:24:13;;;;;;;23.27;19.50;;;;;;;;;;5201180;27;20091;-65
2022/03/02 10:27:06;;;;;;;27.67;19.55;;;;;;;;;;5199369;27;20706;-67
2022/03/02 10:29:51;;;;;;;24.98;18.92;;;;;;;;;;5178913;27;20524;-67
2022/03/02 10:32:17;;;;;;;27.85;19.77;;;;;;;;;;5181890;27;20088;-65
2022/03/02 10:34:54;;;;;;;24.73;19.27;;;;;;;;;;5200809;27;20121;-67
2022/03/02 10:37:34;;;;;;;24.52;19.12;;;;;;;;;;5200683;27;20172;-66
2022/03/02 10:40:18;;;;;;;25.25;21.05;;;;;;;;;;5199734;27;20068;-64
2022/03/02 10:42:56;;;;;;;27.10;20.27;;;;;;;;;;5198980;27;20093;-62
2022/03/02 10:45:27;;;;;;;23.85;19.83;;;;;;;;;;5200021;27;20078;-65
2022/03/02 10:48:11;;;;;;;25.85;20.15;;;;;;;;;;5200669;27;20088;-65
2022/03/02 10:50:39;;;;;;;23.20;19.25;;;;;;;;;;5200676;27;20524;-65
2022/03/02 10:53:07;;;;;;;25.02;20.17;;;;;;;;;;5181847;27;20133;-65
2022/03/02 10:55:35;;;;;;;26.20;20.23;;;;;;;;;;5172512;27;20094;-62
2022/03/02 10:58:04;;;;;;;25.00;20.33;;;;;;;;;;5198387;27;20145;-66
2022/03/02 11:00:32;;;;;;;26.67;21.80;;;;;;;;;;5179723;27;20083;-66
2022/03/02 11:02:59;;;;;;;28.48;21.83;;;;;;;;;;5200601;27;20076;-68
2022/03/02 11:05:28;;;;;;;25.40;20.02;;;;;;;;;;5200259;27;20058;-67
2022/03/02 11:07:54;;;;;;;24.73;19.70;;;;;;;;;;5200545;27;20128;-66
2022/03/02 11:10:22;;;;;;;22.30;19.90;;;;;;;;;;5200508;27;20069;-67
2022/03/02 11:12:49;;;;;;;24.12;20.15;;;;;;;;;;5200561;27;20109;-67
2022/03/02 11:15:17;;;;;;;23.87;20.35;;;;;;;;;;5200518;27;20085;-69
2022/03/02 11:17:58;;;;;;;27.90;20.58;;;;;;;;;;5200318;27;20081;-68
2022/03/02 11:20:26;;;;;;;24.75;20.42;;;;;;;;;;5181218;27;20500;-69
2022/03/02 11:22:55;;;;;;;23.75;19.60;;;;;;;;;;5181334;27;20084;-69
2022/03/02 11:25:41;;;;;;;22.67;19.55;;;;;;;;;;5181314;27;20072;-67
2022/03/02 11:28:07;;;;;;;22.75;18.67;;;;;;;;;;5199970;27;20473;-67
2022/03/02 11:30:34;;;;;;;23.17;19.70;;;;;;;;;;5181424;27;20080;-68
2022/03/02 11:33:06;;;;;;;24.17;18.73;;;;;;;;;;5200620;27;20059;-68
2022/03/02 11:35:36;;;;;;;21.98;18.58;;;;;;;;;;5200558;27;20093;-68
2022/03/02 11:38:04;;;;;;;22.15;18.83;;;;;;;;;;5200440;27;20712;-69
2022/03/02 11:40:45;;;;;;;24.70;21.52;;;;;;;;;;5164161;27;20413;-67
2022/03/02 11:43:19;;;;;;;23.58;19.55;;;;;;;;;;5196641;27;20289;-69
2022/03/02 11:45:46;;;;;;;22.33;18.80;;;;;;;;;;5195011;27;20101;-69
2022/03/02 11:48:15;;;;;;;22.33;18.58;;;;;;;;;;5199376;27;20092;-68
2022/03/02 11:51:09;;;;;;;22.70;19.60;;;;;;;;;;5180674;27;20085;-68
2022/03/02 11:53:39;;;;;;;23.60;19.58;;;;;;;;;;5199905;27;20062;-67
2022/03/02 11:56:08;;;;;;;22.05;19.33;;;;;;;;;;5200141;27;20086;-67
2022/03/02 11:58:57;;;;;;;24.42;20.08;;;;;;;;;;5179571;27;20081;-67
2022/03/02 12:01:25;;;;;;;24.60;19.92;;;;;;;;;;5199306;27;20097;-67
2022/03/02 12:04:01;;;;;;;25.12;19.05;;;;;;;;;;5180647;27;20108;-67
2022/03/02 12:06:29;;;;;;;23.67;19.55;;;;;;;;;;5180791;27;20078;-69
2022/03/02 12:08:56;;;;;;;23.10;19.08;;;;;;;;;;5199877;27;20163;-69
2022/03/02 12:11:41;;;;;;;25.42;20.23;;;;;;;;;;5199515;27;20681;-66
2022/03/02 12:14:09;;;;;;;25.45;20.80;;;;;;;;;;5199810;27;20097;-67
2022/03/02 12:16:37;;;;;;;26.12;21.08;;;;;;;;;;5179368;27;20174;-67
2022/03/02 12:19:03;;;;;;;37.45;29.10;;;;;;;;;;5200011;27;20476;-67
2022/03/02 12:21:29;;;;;;;36.80;29.40;;;;;;;;;;5181211;27;20578;-66
2022/03/02 12:23:56;;;;;;;35.50;30.17;;;;;;;;;;5199827;27;20466;-68
2022/03/02 12:26:22;;;;;;;33.38;26.40;;;;;;;;;;5200126;27;20066;-65
2022/03/02 12:28:56;;;;;;;39.58;31.90;;;;;;;;;;5179585;27;20084;-67
2022/03/02 12:31:30;;;;;;;39.17;31.65;;;;;;;;;;5182374;27;20086;-67
2022/03/02 12:34:15;;;;;;;41.15;31.37;;;;;;;;;;5200264;27;20269;-67
2022/03/02 12:36:42;;;;;;;41.35;31.17;;;;;;;;;;5201635;27;20070;-68
2022/03/02 12:39:09;;;;;;;41.83;32.25;;;;;;;;;;5182024;27;20179;-68
2022/03/02 12:41:36;;;;;;;39.83;29.73;;;;;;;;;;5165092;27;20507;-67
2022/03/02 12:44:04;;;;;;;32.53;24.65;;;;;;;;;;5164600;27;20098;-68
2022/03/02 12:46:31;;;;;;;27.17;21.73;;;;;;;;;;5182237;27;20445;-67
2022/03/02 12:48:57;;;;;;;27.83;21.98;;;;;;;;;;5181567;27;20508;-67
2022/03/02 12:51:28;;;;;;;26.85;21.20;;;;;;;;;;5181178;27;20085;-66
2022/03/02 12:53:54;;;;;;;25.95;22.58;;;;;;;;;;5180957;27;20586;-67
2022/03/02 12:56:20;;;;;;;29.42;22.00;;;;;;;;;;5164446;27;20089;-67
2022/03/02 12:58:46;;;;;;;25.23;19.75;;;;;;;;;;5201329;27;20111;-67
2022/03/02 13:01:12;;;;;;;22.15;19.15;;;;;;;;;;5182135;27;20440;-70
2022/03/02 13:03:47;;;;;;;23.50;20.23;;;;;;;;;;5201201;27;20081;-68
2022/03/02 13:06:17;;;;;;;23.38;20.02;;;;;;;;;;5182006;27;20179;-66
2022/03/02 13:08:50;;;;;;;23.90;19.42;;;;;;;;;;5182085;27;20061;-66
2022/03/02 13:11:27;;;;;;;25.15;21.37;;;;;;;;;;5182166;27;20405;-68
2022/03/02 13:13:54;;;;;;;23.45;19.92;;;;;;;;;;5181980;27;20390;-68
2022/03/02 13:16:22;;;;;;;28.38;22.23;;;;;;;;;;5147126;27;20504;-67
2022/03/02 13:18:50;;;;;;;25.73;21.00;;;;;;;;;;5181954;27;20073;-66
2022/03/02 13:21:31;;;;;;;28.05;22.25;;;;;;;;;;5201280;27;20394;-67
2022/03/02 13:24:16;;;;;;;27.77;23.00;;;;;;;;;;5182046;27;20078;-65
2022/03/02 13:27:12;;;;;;;30.15;24.17;;;;;;;;;;5201058;27;20081;-68
2022/03/02 13:29:51;;;;;;;31.70;25.50;;;;;;;;;;5199507;27;20120;-64
2022/03/02 13:32:18;;;;;;;32.28;27.33;;;;;;;;;;5200447;27;20062;-64
2022/03/02 13:35:04;;;;;;;34.67;27.60;;;;;;;;;;5200277;27;20179;-63
2022/03/02 13:37:56;;;;;;;;;;;;;;;;;;5196726;27;20493;-64
2022/03/02 13:40:34;;;;;;;34.90;26.75;;;;;;;;;;5185772;27;19977;-63
2022/03/02 13:43:06;;;;;;;35.08;26.92;;;;;;;;;;5195802;27;20084;-63
2022/03/02 13:45:37;;;;;;;28.95;25.62;;;;;;;;;;5196109;27;20113;-63
2022/03/02 13:48:12;;;;;;;32.50;26.80;;;;;;;;;;5196598;27;20171;-64
2022/03/02 13:50:56;;;;;;;31.52;25.48;;;;;;;;;;5197148;27;20172;-63
2022/03/02 13:53:39;;;;;;;30.98;25.75;;;;;;;;;;5200711;27;20081;-66
2022/03/02 13:56:10;;;;;;;44.80;35.42;;;;;;;;;;5164382;27;20183;-65
2022/03/02 13:58:38;;;;;;;33.17;26.25;;;;;;;;;;5181672;27;20062;-66
2022/03/02 14:01:11;;;;;;;29.00;24.67;;;;;;;;;;5200759;27;20113;-67
2022/03/02 14:03:43;;;;;;;32.75;25.20;;;;;;;;;;5200660;27;20085;-68
2022/03/02 14:06:11;;;;;;;33.38;26.10;;;;;;;;;;5181865;27;20564;-68
2022/03/02 14:08:51;;;;;;;29.42;24.35;;;;;;;;;;5201135;27;20227;-69
2022/03/02 14:11:34;;;;;;;29.70;26.05;;;;;;;;;;5200795;27;20157;-69
2022/03/02 14:14:01;;;;;;;29.77;25.25;;;;;;;;;;5200359;27;20515;-68
2022/03/02 14:17:28;;;;;;;29.37;25.35;;;;;;;;;;5163952;27;20102;-70
2022/03/02 14:23:19;;;;;;;28.10;24.08;;;;;;;;;;5159109;27;20097;-69
2022/03/02 14:25:52;;;;;;;28.30;24.73;;;;;;;;;;5214726;27;20101;-69
2022/03/02 14:28:19;;;;;;;29.08;23.50;;;;;;;;;;5200225;27;20069;-68
2022/03/02 14:38:38;;;;;;;27.10;21.48;;;;;;;;;;4939694;28;20098;-68
2022/03/02 15:40:46;;;;;;;23.00;20.52;;;;;;;;;;5175555;27;20477;-68
2022/03/02 15:44:32;;;;;;;;;;;;;;;;;;;;;
2022/03/02 16:56:04;;;;;;;13.55;11.70;;;;;;;;;;5017035;27;20099;-70
2022/03/02 16:58:36;;;;;;;13.40;11.98;;;;;;;;;;5116667;27;20101;-68
2022/03/02 17:01:04;;;;;;;13.05;11.65;;;;;;;;;;5134209;27;20090;-69
2022/03/02 17:03:33;;;;;;;13.30;11.75;;;;;;;;;;5141113;27;20180;-69
2022/03/02 17:06:46;;;;;;;14.55;12.75;;;;;;;;;;5180877;27;20098;-68
2022/03/02 17:08:49;;;;;;;;;;;;;;;;;;5200179;27;20092;-69
2022/03/02 17:11:18;;;;;;;14.82;12.48;;;;;;;;;;5199915;27;19957;-66